Time;durP1;ratioP1;P1;durP2;ratioP2;P2;SDS_P1;SDS_P2;PMS_P1;PMS_P2;Temp;Humidity;BMP_temperature;BMP_pressure;BME280_temperature;BME280_humidity;BME280_pressure;Samples;Min_cycle;Max_cycle;Signal;HPM_P1;HPM_P2
2023/09/19 00:00:38;;;;;;;0.10;0.10;;;20.00;99.90;;;;;;7396658;19;20134;-80
2023/09/19 00:03:05;;;;;;;0.20;0.20;;;20.10;99.90;;;;;;7398050;19;20134;-80
2023/09/19 00:05:35;;;;;;;0.30;0.30;;;20.10;99.90;;;;;;7393339;19;20154;-80
2023/09/19 00:08:04;;;;;;;0.10;0.10;;;20.10;99.90;;;;;;7393022;19;20158;-79
2023/09/19 00:10:32;;;;;;;0.10;0.10;;;20.10;99.90;;;;;;7395285;19;20135;-80
2023/09/19 00:12:59;;;;;;;0.10;0.10;;;20.00;99.90;;;;;;7392912;19;20476;-80
2023/09/19 00:15:29;;;;;;;0.00;0.00;;;20.00;99.90;;;;;;7393071;19;20143;-81
2023/09/19 00:17:56;;;;;;;0.05;0.05;;;20.00;99.90;;;;;;7393846;19;20154;-79
2023/09/19 00:20:23;;;;;;;0.03;0.03;;;19.90;99.90;;;;;;7393611;19;20134;-80
2023/09/19 00:22:53;;;;;;;0.10;0.10;;;19.90;99.90;;;;;;7392706;19;20142;-79
2023/09/19 00:25:20;;;;;;;0.47;0.47;;;19.90;99.90;;;;;;7391070;19;20146;-81
2023/09/19 00:27:51;;;;;;;0.10;0.10;;;19.90;99.90;;;;;;7393385;19;20175;-80
2023/09/19 00:30:21;;;;;;;0.10;0.10;;;19.90;99.90;;;;;;7395093;19;20142;-80
2023/09/19 00:32:54;;;;;;;0.10;0.10;;;19.90;99.90;;;;;;7393994;19;20138;-79
2023/09/19 00:35:20;;;;;;;0.10;0.10;;;19.70;99.90;;;;;;7390764;19;20140;-80
2023/09/19 00:37:46;;;;;;;0.10;0.10;;;19.60;99.90;;;;;;7394269;19;20173;-79
2023/09/19 00:40:12;;;;;;;0.10;0.10;;;19.70;99.90;;;;;;7389718;19;20135;-80
2023/09/19 00:42:40;;;;;;;0.10;0.10;;;19.80;99.90;;;;;;7393507;19;20526;-81
2023/09/19 00:45:09;;;;;;;0.05;0.05;;;20.00;99.90;;;;;;7390581;19;20173;-79
2023/09/19 00:47:35;;;;;;;0.10;0.10;;;20.00;99.90;;;;;;7393606;19;20151;-80
2023/09/19 00:50:02;;;;;;;0.10;0.10;;;19.90;99.90;;;;;;7393263;19;20143;-81
2023/09/19 00:52:28;;;;;;;0.10;0.10;;;19.80;99.90;;;;;;7391521;19;20226;-80
2023/09/19 00:54:54;;;;;;;0.20;0.20;;;19.80;99.90;;;;;;7391354;19;20131;-80
2023/09/19 00:57:22;;;;;;;0.05;0.05;;;19.40;99.90;;;;;;7392453;19;20525;-80
2023/09/19 00:59:50;;;;;;;0.15;0.10;;;19.40;99.90;;;;;;7392766;19;20146;-80
2023/09/19 01:02:16;;;;;;;0.10;0.10;;;19.50;99.90;;;;;;7390942;19;20161;-80
2023/09/19 01:04:42;;;;;;;0.10;0.10;;;19.60;99.90;;;;;;7385704;19;20611;-79
2023/09/19 01:07:09;;;;;;;0.10;0.10;;;19.60;99.90;;;;;;7392795;19;20470;-80
2023/09/19 01:09:35;;;;;;;0.03;0.03;;;19.80;99.90;;;;;;7394736;19;20146;-79
2023/09/19 01:12:05;;;;;;;0.10;0.10;;;19.80;99.90;;;;;;7391520;19;20131;-80
2023/09/19 01:14:57;;;;;;;0.20;0.20;;;19.70;99.90;;;;;;7389693;19;20146;-79
2023/09/19 01:17:30;;;;;;;0.10;0.10;;;19.70;99.90;;;;;;7391236;19;20218;-81
2023/09/19 01:20:08;;;;;;;0.10;0.10;;;19.60;99.90;;;;;;7393013;19;20174;-79
2023/09/19 01:23:35;;;;;;;0.10;0.10;;;19.70;99.90;;;;;;7392081;19;20138;-81
2023/09/19 01:26:06;;;;;;;0.22;0.22;;;19.70;99.90;;;;;;7387630;19;20190;-80
2023/09/19 01:28:42;;;;;;;0.05;0.05;;;19.80;99.90;;;;;;7385975;19;20139;-80
2023/09/19 01:31:11;;;;;;;0.10;0.10;;;19.70;99.90;;;;;;7389191;19;20152;-79
2023/09/19 01:33:59;;;;;;;0.10;0.10;;;19.80;99.90;;;;;;7388603;19;20202;-80
2023/09/19 01:36:36;;;;;;;0.20;0.20;;;19.70;99.90;;;;;;7384349;19;20230;-80
2023/09/19 01:39:12;;;;;;;0.10;0.10;;;19.80;99.90;;;;;;7390481;19;20134;-80
2023/09/19 01:42:04;;;;;;;0.10;0.10;;;19.70;99.90;;;;;;7387667;19;20210;-80
2023/09/19 01:45:04;;;;;;;0.10;0.10;;;19.60;99.90;;;;;;7390613;19;20167;-80
2023/09/19 01:47:37;;;;;;;0.10;0.10;;;19.60;99.90;;;;;;7391538;19;20131;-80
2023/09/19 01:50:10;;;;;;;0.10;0.10;;;19.60;99.90;;;;;;7391622;19;20135;-80
2023/09/19 01:52:45;;;;;;;0.10;0.10;;;19.70;99.90;;;;;;7389483;19;20138;-79
2023/09/19 01:55:14;;;;;;;0.10;0.10;;;19.70;99.90;;;;;;7390649;19;20127;-80
2023/09/19 01:58:01;;;;;;;0.20;0.20;;;19.80;99.90;;;;;;7387411;19;20148;-79
2023/09/19 02:00:29;;;;;;;0.10;0.10;;;19.70;99.90;;;;;;7388748;19;20167;-80
2023/09/19 02:02:58;;;;;;;0.10;0.10;;;19.70;99.90;;;;;;7386735;19;20131;-80
2023/09/19 02:05:25;;;;;;;0.13;0.13;;;19.70;99.90;;;;;;7385927;19;20910;-80
2023/09/19 02:07:53;;;;;;;0.10;0.10;;;19.70;99.90;;;;;;7387488;19;20473;-79
2023/09/19 02:10:19;;;;;;;0.10;0.10;;;19.70;99.90;;;;;;7387547;19;20142;-80
2023/09/19 02:12:45;;;;;;;0.00;0.00;;;19.60;99.90;;;;;;7388954;19;20142;-80
2023/09/19 02:15:11;;;;;;;0.68;0.52;;;19.60;99.90;;;;;;7389067;19;20167;-80
2023/09/19 02:17:37;;;;;;;0.10;0.10;;;19.60;99.90;;;;;;7390610;19;20212;-79
2023/09/19 02:20:10;;;;;;;0.10;0.10;;;19.50;99.90;;;;;;7389325;19;20123;-80
2023/09/19 02:22:38;;;;;;;0.00;0.00;;;19.60;99.90;;;;;;7385958;19;20143;-80
2023/09/19 02:25:04;;;;;;;0.10;0.10;;;19.70;99.90;;;;;;7385260;19;20618;-80
2023/09/19 02:27:30;;;;;;;0.05;0.05;;;19.80;99.90;;;;;;7387095;19;20500;-80
2023/09/19 02:29:56;;;;;;;0.10;0.10;;;19.80;99.90;;;;;;7387747;19;20126;-81
2023/09/19 02:32:23;;;;;;;0.10;0.10;;;19.90;99.90;;;;;;7390316;19;20129;-81
2023/09/19 02:34:48;;;;;;;0.05;0.05;;;19.80;99.90;;;;;;7386013;19;20162;-80
2023/09/19 02:37:16;;;;;;;0.10;0.10;;;19.60;99.90;;;;;;7386464;19;20142;-80
2023/09/19 02:39:42;;;;;;;0.10;0.10;;;19.70;99.90;;;;;;7387848;19;20134;-78
2023/09/19 02:42:08;;;;;;;0.10;0.10;;;19.70;99.90;;;;;;7386137;19;20130;-81
2023/09/19 02:44:37;;;;;;;0.10;0.10;;;19.60;99.90;;;;;;7382227;19;20142;-79
2023/09/19 02:47:04;;;;;;;0.10;0.10;;;19.50;99.90;;;;;;7389192;19;20146;-80
2023/09/19 02:49:30;;;;;;;0.10;0.10;;;19.50;99.90;;;;;;7388322;19;20134;-80
2023/09/19 02:51:55;;;;;;;0.10;0.10;;;19.60;99.90;;;;;;7389948;19;20134;-81
2023/09/19 02:54:21;;;;;;;0.10;0.10;;;19.60;99.90;;;;;;7387332;19;20538;-81
2023/09/19 02:56:47;;;;;;;0.25;0.20;;;19.70;99.90;;;;;;7387207;19;20161;-81
2023/09/19 02:59:14;;;;;;;0.10;0.10;;;19.60;99.90;;;;;;7386833;19;20154;-81
2023/09/19 03:01:42;;;;;;;0.10;0.10;;;19.60;99.90;;;;;;7388752;19;20146;-80
2023/09/19 03:04:11;;;;;;;0.20;0.20;;;19.70;99.90;;;;;;7386917;19;20142;-79
2023/09/19 03:06:38;;;;;;;0.10;0.10;;;19.60;99.90;;;;;;7389782;19;20134;-79
2023/09/19 03:09:12;;;;;;;0.10;0.10;;;19.60;99.90;;;;;;7390010;19;20130;-81
2023/09/19 03:11:40;;;;;;;0.10;0.10;;;19.70;99.90;;;;;;7388242;19;20126;-80
2023/09/19 03:14:06;;;;;;;0.10;0.10;;;19.70;99.90;;;;;;7389606;19;20157;-80
2023/09/19 03:16:33;;;;;;;0.00;0.00;;;19.70;99.90;;;;;;7387363;19;20153;-80
2023/09/19 03:18:59;;;;;;;0.10;0.10;;;19.70;99.90;;;;;;7389384;19;20145;-82
2023/09/19 03:21:25;;;;;;;0.10;0.10;;;19.70;99.90;;;;;;7388178;19;20240;-79
2023/09/19 03:23:51;;;;;;;0.00;0.00;;;19.70;99.90;;;;;;7387683;19;20213;-80
2023/09/19 03:26:17;;;;;;;0.10;0.10;;;19.80;99.90;;;;;;7386853;19;20141;-81
2023/09/19 03:28:43;;;;;;;0.10;0.10;;;19.70;99.90;;;;;;7386775;19;20510;-80
2023/09/19 03:31:10;;;;;;;0.10;0.10;;;19.70;99.90;;;;;;7387136;19;20542;-80
2023/09/19 03:33:36;;;;;;;0.10;0.10;;;19.70;99.90;;;;;;7386971;19;20473;-81
2023/09/19 03:36:04;;;;;;;0.10;0.10;;;19.70;99.90;;;;;;7392495;19;20696;-81
2023/09/19 03:38:31;;;;;;;0.10;0.10;;;19.80;99.90;;;;;;7395591;19;20134;-82
2023/09/19 03:40:57;;;;;;;0.10;0.10;;;19.80;99.90;;;;;;7393795;19;20173;-81
2023/09/19 03:43:22;;;;;;;0.10;0.10;;;19.80;99.90;;;;;;7392773;19;20147;-81
2023/09/19 03:45:49;;;;;;;0.10;0.10;;;19.60;99.90;;;;;;7392930;19;20138;-81
2023/09/19 03:48:14;;;;;;;0.00;0.00;;;19.70;99.90;;;;;;7396269;19;20135;-81
2023/09/19 03:50:40;;;;;;;0.10;0.10;;;19.80;99.90;;;;;;7394644;19;20624;-81
2023/09/19 03:53:08;;;;;;;0.10;0.10;;;19.80;99.90;;;;;;7393889;19;20142;-81
2023/09/19 03:55:35;;;;;;;0.10;0.10;;;19.80;99.90;;;;;;7390261;19;20154;-81
2023/09/19 03:58:04;;;;;;;0.20;0.20;;;19.80;99.90;;;;;;7394031;19;20493;-81
2023/09/19 04:00:30;;;;;;;0.03;0.03;;;19.70;99.90;;;;;;7394402;19;20230;-81
2023/09/19 04:02:56;;;;;;;0.10;0.10;;;19.70;99.90;;;;;;7391918;19;20163;-81
2023/09/19 04:05:25;;;;;;;0.10;0.10;;;19.80;99.90;;;;;;7391428;19;20313;-81
2023/09/19 04:07:55;;;;;;;0.10;0.10;;;19.70;99.90;;;;;;7393427;19;20849;-81
2023/09/19 04:10:21;;;;;;;0.10;0.10;;;19.70;99.90;;;;;;7394410;19;20151;-81
2023/09/19 04:12:54;;;;;;;0.10;0.10;;;19.80;99.90;;;;;;7394395;19;20564;-80
2023/09/19 04:15:22;;;;;;;0.25;0.25;;;19.90;99.90;;;;;;7394384;19;20157;-79
2023/09/19 04:17:50;;;;;;;0.10;0.10;;;19.90;99.90;;;;;;7395228;19;20214;-81
2023/09/19 04:20:22;;;;;;;0.25;0.25;;;19.80;99.90;;;;;;7394838;19;20222;-82
2023/09/19 04:22:48;;;;;;;0.10;0.10;;;19.80;99.90;;;;;;7390925;19;20149;-81
2023/09/19 04:25:13;;;;;;;0.10;0.10;;;19.80;99.90;;;;;;7391829;19;20217;-81
2023/09/19 04:27:40;;;;;;;0.10;0.10;;;19.50;99.90;;;;;;7392189;19;20138;-80
2023/09/19 04:30:11;;;;;;;0.10;0.10;;;19.50;99.90;;;;;;7394447;19;20453;-82
2023/09/19 04:32:40;;;;;;;0.05;0.05;;;19.40;99.90;;;;;;7393232;19;20160;-82
2023/09/19 04:35:11;;;;;;;0.10;0.10;;;19.50;99.90;;;;;;7392705;19;20515;-81
2023/09/19 04:37:39;;;;;;;0.10;0.10;;;19.40;99.90;;;;;;7390993;19;20751;-81
2023/09/19 04:40:12;;;;;;;0.28;0.28;;;19.50;99.90;;;;;;7392845;19;20162;-82
2023/09/19 04:42:38;;;;;;;0.10;0.10;;;19.50;99.90;;;;;;7392993;19;20131;-82
2023/09/19 04:45:05;;;;;;;0.10;0.10;;;19.60;99.90;;;;;;7391678;19;20135;-82
2023/09/19 04:47:30;;;;;;;0.22;0.22;;;19.40;99.90;;;;;;7389198;19;20146;-82
2023/09/19 04:49:58;;;;;;;0.10;0.10;;;19.40;99.90;;;;;;7393237;19;20498;-82
2023/09/19 04:52:24;;;;;;;0.13;0.13;;;19.60;99.90;;;;;;7391463;19;20134;-82
2023/09/19 04:54:50;;;;;;;0.10;0.10;;;19.40;99.90;;;;;;7391696;19;20666;-82
2023/09/19 04:57:16;;;;;;;0.20;0.20;;;19.40;99.90;;;;;;7390905;19;20141;-81
2023/09/19 04:59:41;;;;;;;0.10;0.10;;;19.40;99.90;;;;;;7391733;19;20266;-80
2023/09/19 05:02:11;;;;;;;0.10;0.10;;;19.40;99.90;;;;;;7392020;19;20594;-81
2023/09/19 05:04:38;;;;;;;0.10;0.10;;;19.30;99.90;;;;;;7392344;19;21028;-80
2023/09/19 05:07:04;;;;;;;0.10;0.10;;;19.30;99.90;;;;;;7391917;19;20147;-81
2023/09/19 05:09:30;;;;;;;0.10;0.10;;;19.20;99.90;;;;;;7391072;19;20145;-81
2023/09/19 05:11:56;;;;;;;0.10;0.10;;;19.30;99.90;;;;;;7391013;19;20142;-82
2023/09/19 05:14:23;;;;;;;0.17;0.17;;;19.20;99.90;;;;;;7392150;19;20237;-81
2023/09/19 05:16:49;;;;;;;0.10;0.10;;;19.10;99.90;;;;;;7391743;19;20158;-80
2023/09/19 05:19:14;;;;;;;0.10;0.10;;;19.10;99.90;;;;;;7392105;19;20582;-83
2023/09/19 05:21:40;;;;;;;0.15;0.15;;;19.00;99.90;;;;;;7391315;19;20533;-81
2023/09/19 05:24:06;;;;;;;0.10;0.10;;;18.90;99.90;;;;;;7391077;19;20545;-82
2023/09/19 05:26:32;;;;;;;0.10;0.10;;;19.00;99.90;;;;;;7390931;19;20147;-82
2023/09/19 05:28:58;;;;;;;0.10;0.10;;;19.20;99.90;;;;;;7382632;19;20164;-80
2023/09/19 05:31:25;;;;;;;0.10;0.10;;;19.20;99.90;;;;;;7390303;19;20143;-81
2023/09/19 05:33:52;;;;;;;0.10;0.10;;;19.20;99.90;;;;;;7390372;19;20362;-81
2023/09/19 05:36:18;;;;;;;0.10;0.10;;;19.30;99.90;;;;;;7390896;19;20146;-82
2023/09/19 05:38:44;;;;;;;0.10;0.10;;;19.10;99.90;;;;;;7389635;19;20134;-84
2023/09/19 05:41:13;;;;;;;0.10;0.10;;;19.00;99.90;;;;;;7388239;19;20142;-80
2023/09/19 05:43:40;;;;;;;0.10;0.10;;;19.10;99.90;;;;;;7387584;19;20150;-82
2023/09/19 05:46:08;;;;;;;0.10;0.10;;;19.10;99.90;;;;;;7391708;19;20134;-83
2023/09/19 05:48:34;;;;;;;0.30;0.17;;;19.00;99.90;;;;;;7392598;19;20150;-81
2023/09/19 05:51:01;;;;;;;0.10;0.10;;;18.80;99.90;;;;;;7392124;19;20248;-82
2023/09/19 05:53:27;;;;;;;0.30;0.30;;;18.80;99.90;;;;;;7389520;19;20154;-81
2023/09/19 05:55:53;;;;;;;0.10;0.10;;;18.60;99.90;;;;;;7388877;19;20479;-82
2023/09/19 05:58:19;;;;;;;0.20;0.20;;;18.50;99.90;;;;;;7387173;19;20167;-82
2023/09/19 06:00:48;;;;;;;0.10;0.10;;;18.50;99.90;;;;;;7392076;19;20523;-81
2023/09/19 06:03:14;;;;;;;0.20;0.20;;;18.20;99.90;;;;;;7388612;19;20165;-81
2023/09/19 06:05:40;;;;;;;0.10;0.10;;;18.20;99.90;;;;;;7385326;19;20150;-81
2023/09/19 06:08:09;;;;;;;0.35;0.35;;;18.30;99.90;;;;;;7389928;19;20142;-81
2023/09/19 06:10:35;;;;;;;0.20;0.20;;;18.60;99.90;;;;;;7389362;19;20146;-80
2023/09/19 06:13:05;;;;;;;0.10;0.10;;;18.60;99.90;;;;;;7391337;19;20154;-81
2023/09/19 06:15:33;;;;;;;0.15;0.15;;;18.70;99.90;;;;;;7388908;19;20154;-80
2023/09/19 06:17:59;;;;;;;0.10;0.10;;;18.60;99.90;;;;;;7393457;19;20510;-80
2023/09/19 06:20:26;;;;;;;0.10;0.10;;;18.60;99.90;;;;;;7389781;19;20138;-80
2023/09/19 06:22:56;;;;;;;0.43;0.43;;;18.50;99.90;;;;;;7387670;19;20134;-81
2023/09/19 06:25:22;;;;;;;0.10;0.10;;;18.60;99.90;;;;;;7386617;19;20416;-79
2023/09/19 06:27:53;;;;;;;0.10;0.10;;;18.50;99.90;;;;;;7388745;19;20147;-79
2023/09/19 06:30:20;;;;;;;0.20;0.20;;;18.60;99.90;;;;;;7386881;19;20139;-79
2023/09/19 06:32:46;;;;;;;0.10;0.10;;;18.60;99.90;;;;;;7388669;19;20179;-78
2023/09/19 06:35:12;;;;;;;0.10;0.10;;;18.70;99.90;;;;;;7388987;19;20150;-79
2023/09/19 06:37:39;;;;;;;0.20;0.20;;;18.70;99.90;;;;;;7388593;19;20130;-80
2023/09/19 06:40:08;;;;;;;0.10;0.10;;;18.70;99.90;;;;;;7389367;19;20148;-80
2023/09/19 06:42:36;;;;;;;0.10;0.10;;;18.80;99.90;;;;;;7389440;19;20140;-79
2023/09/19 06:45:05;;;;;;;0.17;0.17;;;18.90;99.90;;;;;;7390526;19;20166;-78
2023/09/19 06:47:31;;;;;;;0.10;0.10;;;19.00;99.90;;;;;;7387298;19;20135;-79
2023/09/19 06:49:56;;;;;;;0.10;0.10;;;19.10;99.90;;;;;;7388589;19;20134;-79
2023/09/19 06:52:22;;;;;;;0.10;0.10;;;19.00;99.90;;;;;;7388109;19;20168;-79
2023/09/19 06:54:52;;;;;;;0.10;0.10;;;18.90;99.90;;;;;;7389393;19;20142;-79
2023/09/19 06:57:19;;;;;;;0.10;0.10;;;19.30;99.90;;;;;;7387804;19;20182;-79
2023/09/19 06:59:46;;;;;;;0.10;0.10;;;19.30;99.90;;;;;;7389663;19;20134;-80
2023/09/19 07:02:12;;;;;;;0.10;0.10;;;19.20;99.90;;;;;;7388925;19;20138;-80
2023/09/19 07:04:38;;;;;;;0.25;0.20;;;19.30;99.90;;;;;;7388014;19;20154;-78
2023/09/19 07:07:04;;;;;;;0.10;0.10;;;19.40;99.90;;;;;;7388549;19;20552;-79
2023/09/19 07:09:30;;;;;;;0.20;0.20;;;19.40;99.90;;;;;;7387757;19;20146;-79
2023/09/19 07:11:56;;;;;;;0.10;0.10;;;19.30;99.90;;;;;;7394701;19;20155;-78
2023/09/19 07:14:21;;;;;;;0.10;0.10;;;19.40;99.90;;;;;;7394988;19;20158;-79
2023/09/19 07:16:49;;;;;;;0.22;0.22;;;19.40;99.90;;;;;;7394125;19;20152;-78
2023/09/19 07:19:15;;;;;;;0.10;0.10;;;19.40;99.90;;;;;;7394633;19;20163;-79
2023/09/19 07:21:42;;;;;;;0.10;0.10;;;19.50;99.90;;;;;;7393578;19;20135;-78
2023/09/19 07:24:08;;;;;;;0.10;0.10;;;19.60;99.90;;;;;;7395805;19;20614;-81
2023/09/19 07:26:34;;;;;;;0.20;0.20;;;19.70;99.90;;;;;;7396037;19;20158;-79
2023/09/19 07:29:02;;;;;;;0.22;0.22;;;19.70;99.90;;;;;;7396398;19;20141;-78
2023/09/19 07:31:28;;;;;;;0.20;0.20;;;19.60;99.90;;;;;;7390758;19;20496;-77
2023/09/19 07:33:54;;;;;;;0.17;0.17;;;19.20;99.90;;;;;;7394405;19;20198;-80
2023/09/19 07:36:20;;;;;;;0.10;0.10;;;19.50;99.90;;;;;;7394843;19;20864;-78
2023/09/19 07:38:46;;;;;;;0.25;0.25;;;19.60;99.90;;;;;;7392878;19;20142;-79
2023/09/19 07:41:11;;;;;;;0.10;0.10;;;19.70;99.90;;;;;;7393960;19;20198;-84
2023/09/19 07:43:40;;;;;;;0.10;0.10;;;19.80;99.90;;;;;;7391222;19;20520;-83
2023/09/19 07:46:07;;;;;;;0.20;0.20;;;19.80;99.90;;;;;;7399751;19;20669;-83
2023/09/19 07:48:34;;;;;;;0.10;0.10;;;19.90;99.90;;;;;;7394414;19;20142;-84
2023/09/19 07:51:07;;;;;;;0.10;0.10;;;19.90;99.90;;;;;;7401451;19;20154;-83
2023/09/19 07:53:34;;;;;;;0.10;0.10;;;19.90;99.90;;;;;;7396694;19;20142;-82
2023/09/19 07:56:05;;;;;;;0.10;0.10;;;19.90;99.90;;;;;;7395279;19;20138;-82
2023/09/19 07:58:31;;;;;;;0.10;0.10;;;19.90;99.90;;;;;;7395330;19;20611;-83
2023/09/19 08:01:02;;;;;;;0.10;0.10;;;19.90;99.90;;;;;;7394460;19;20134;-82
2023/09/19 08:03:27;;;;;;;0.15;0.15;;;19.90;99.90;;;;;;7391353;19;20143;-81
2023/09/19 08:05:55;;;;;;;0.20;0.20;;;19.80;99.90;;;;;;7394707;19;20146;-82
2023/09/19 08:08:21;;;;;;;0.10;0.10;;;19.70;99.90;;;;;;7393206;19;20460;-83
2023/09/19 08:11:01;;;;;;;0.40;0.40;;;19.80;99.90;;;;;;7397062;19;20130;-84
2023/09/19 08:13:27;;;;;;;0.30;0.20;;;19.70;99.90;;;;;;7395370;19;20161;-83
2023/09/19 08:15:53;;;;;;;0.25;0.25;;;20.00;99.90;;;;;;7394179;19;20225;-82
2023/09/19 08:18:19;;;;;;;0.10;0.10;;;20.20;99.90;;;;;;7396126;19;20134;-82
2023/09/19 08:20:50;;;;;;;0.10;0.10;;;20.40;99.90;;;;;;7394484;19;20149;-82
2023/09/19 08:23:18;;;;;;;0.30;0.30;;;20.40;99.90;;;;;;7398047;19;20547;-81
2023/09/19 08:25:44;;;;;;;0.17;0.17;;;20.50;99.90;;;;;;7401685;19;20146;-83
2023/09/19 08:28:12;;;;;;;0.10;0.10;;;20.60;99.90;;;;;;7396265;19;20131;-82
2023/09/19 08:30:40;;;;;;;0.10;0.10;;;20.70;99.90;;;;;;7391907;19;20214;-83
2023/09/19 08:33:07;;;;;;;0.10;0.10;;;20.90;99.90;;;;;;7394509;19;20157;-80
2023/09/19 08:35:33;;;;;;;0.38;0.38;;;21.00;99.90;;;;;;7392922;19;20169;-81
2023/09/19 08:38:03;;;;;;;0.15;0.15;;;21.10;99.90;;;;;;7393917;19;20443;-81
2023/09/19 08:40:35;;;;;;;0.10;0.10;;;21.30;99.90;;;;;;7393196;19;20142;-82
2023/09/19 08:43:01;;;;;;;0.10;0.10;;;21.30;99.90;;;;;;7391517;19;20165;-82
2023/09/19 08:45:28;;;;;;;0.05;0.05;;;21.30;99.90;;;;;;7392620;19;20158;-81
2023/09/19 08:48:08;;;;;;;0.10;0.10;;;21.30;99.90;;;;;;7392873;19;20153;-81
2023/09/19 08:50:43;;;;;;;0.10;0.10;;;21.30;99.90;;;;;;7394934;19;20149;-82
2023/09/19 08:53:15;;;;;;;0.10;0.10;;;21.30;99.90;;;;;;7396123;19;20141;-80
2023/09/19 08:55:43;;;;;;;0.13;0.10;;;21.10;99.90;;;;;;7395091;19;20161;-82
2023/09/19 08:58:16;;;;;;;0.10;0.10;;;21.00;99.90;;;;;;7392980;19;20130;-80
2023/09/19 09:00:46;;;;;;;0.20;0.20;;;21.00;99.90;;;;;;7391883;19;20231;-81
2023/09/19 09:03:14;;;;;;;0.40;0.40;;;21.00;99.90;;;;;;7391010;19;20134;-80
2023/09/19 09:05:43;;;;;;;0.28;0.20;;;21.30;99.90;;;;;;7390620;19;20177;-80
2023/09/19 09:08:10;;;;;;;0.20;0.20;;;21.30;99.90;;;;;;7391606;19;20166;-81
2023/09/19 09:10:37;;;;;;;0.10;0.10;;;21.50;99.90;;;;;;7392212;19;20154;-81
2023/09/19 09:13:06;;;;;;;0.35;0.35;;;21.60;99.90;;;;;;7394104;19;20147;-79
2023/09/19 09:15:36;;;;;;;0.10;0.10;;;21.90;99.90;;;;;;7393611;19;20169;-79
2023/09/19 09:18:04;;;;;;;0.10;0.10;;;22.00;99.90;;;;;;7393921;19;20154;-79
2023/09/19 09:20:30;;;;;;;0.20;0.20;;;21.90;99.90;;;;;;7391692;19;20177;-79
2023/09/19 09:23:03;;;;;;;0.03;0.03;;;22.00;99.90;;;;;;7390941;19;20737;-79
2023/09/19 09:25:54;;;;;;;0.10;0.10;;;21.90;99.90;;;;;;7393994;19;20142;-80
2023/09/19 09:28:28;;;;;;;0.10;0.10;;;21.90;99.90;;;;;;7393165;19;20166;-80
2023/09/19 09:30:58;;;;;;;0.10;0.10;;;22.00;99.90;;;;;;7389389;19;20205;-79
2023/09/19 09:33:24;;;;;;;0.10;0.10;;;22.10;99.90;;;;;;7391017;19;20503;-79
2023/09/19 09:35:56;;;;;;;0.20;0.20;;;22.20;99.90;;;;;;7391397;19;20139;-80
2023/09/19 09:38:45;;;;;;;0.13;0.13;;;22.30;99.90;;;;;;7393815;19;20417;-79
2023/09/19 09:41:15;;;;;;;0.10;0.10;;;22.30;99.90;;;;;;7394622;19;20135;-80
2023/09/19 09:43:46;;;;;;;0.10;0.10;;;22.00;99.90;;;;;;7394197;19;20595;-80
2023/09/19 09:51:45;;;;;;;0.20;0.20;;;22.40;99.90;;;;;;7393224;19;20594;-80
2023/09/19 09:54:12;;;;;;;0.08;0.08;;;22.50;99.90;;;;;;7397284;19;20472;-80
2023/09/19 09:57:00;;;;;;;0.10;0.10;;;22.50;99.90;;;;;;7395538;19;20130;-77
2023/09/19 09:59:47;;;;;;;0.10;0.10;;;22.50;99.90;;;;;;7399735;19;20134;-79
2023/09/19 10:02:40;;;;;;;0.10;0.10;;;22.40;99.90;;;;;;7400983;19;20135;-77
2023/09/19 10:05:20;;;;;;;0.10;0.10;;;22.20;99.90;;;;;;7397669;19;20170;-79
2023/09/19 10:07:52;;;;;;;0.10;0.10;;;22.10;99.90;;;;;;7397998;19;20146;-79
2023/09/19 10:13:15;;;;;;;0.10;0.10;;;22.20;99.90;;;;;;7393558;19;20182;-80
2023/09/19 10:15:50;;;;;;;0.10;0.10;;;22.40;99.90;;;;;;7392669;19;20502;-79
2023/09/19 10:18:21;;;;;;;0.10;0.10;;;22.40;99.90;;;;;;7392049;19;20209;-80
2023/09/19 10:20:50;;;;;;;0.20;0.20;;;22.40;99.90;;;;;;7392855;19;20129;-79
2023/09/19 10:23:23;;;;;;;0.20;0.20;;;22.20;99.90;;;;;;7389184;19;20159;-79
2023/09/19 10:25:49;;;;;;;0.00;0.00;;;22.10;99.90;;;;;;7391371;19;20157;-80
2023/09/19 10:28:21;;;;;;;0.17;0.17;;;22.00;99.90;;;;;;7390375;19;20127;-79
2023/09/19 10:30:50;;;;;;;0.20;0.10;;;21.90;99.90;;;;;;7391354;19;20130;-79
2023/09/19 10:33:17;;;;;;;0.10;0.10;;;21.70;99.90;;;;;;7391550;19;20150;-78
2023/09/19 10:35:46;;;;;;;0.10;0.10;;;21.70;99.90;;;;;;7392556;19;20157;-80
2023/09/19 10:38:14;;;;;;;0.10;0.10;;;21.80;99.90;;;;;;7394372;19;20146;-78
2023/09/19 10:40:43;;;;;;;0.30;0.30;;;22.00;99.90;;;;;;7388761;19;20160;-80
2023/09/19 10:43:20;;;;;;;0.20;0.20;;;22.00;99.90;;;;;;7391657;19;20163;-80
2023/09/19 10:45:49;;;;;;;0.10;0.10;;;21.90;99.90;;;;;;7392843;19;20161;-79
2023/09/19 10:48:19;;;;;;;0.10;0.10;;;21.80;99.90;;;;;;7394481;19;20126;-80
2023/09/19 10:51:23;;;;;;;0.10;0.10;;;21.90;99.90;;;;;;7391535;19;20142;-82
2023/09/19 10:54:00;;;;;;;0.10;0.10;;;21.90;99.90;;;;;;7390276;19;20130;-82
2023/09/19 10:56:38;;;;;;;0.10;0.10;;;21.80;99.90;;;;;;7393947;19;20158;-80
2023/09/19 10:59:18;;;;;;;0.00;0.00;;;22.00;99.90;;;;;;7396182;19;20263;-81
2023/09/19 11:01:52;;;;;;;0.17;0.17;;;22.10;99.90;;;;;;7391247;19;20599;-79
2023/09/19 11:04:25;;;;;;;0.10;0.10;;;22.20;99.90;;;;;;7396104;19;20131;-81
2023/09/19 11:07:15;;;;;;;0.20;0.20;;;22.20;99.90;;;;;;7396621;19;20154;-80
2023/09/19 11:09:57;;;;;;;0.10;0.10;;;22.30;99.90;;;;;;7389992;19;20173;-81
2023/09/19 11:12:29;;;;;;;0.10;0.10;;;22.10;99.90;;;;;;7390628;19;20156;-81
2023/09/19 11:14:55;;;;;;;0.10;0.10;;;22.00;99.90;;;;;;7390703;19;20147;-80
2023/09/19 11:17:31;;;;;;;0.10;0.10;;;22.00;99.90;;;;;;7399730;19;20481;-82
2023/09/19 11:20:15;;;;;;;0.10;0.10;;;22.10;99.90;;;;;;7392506;19;20131;-79
2023/09/19 11:22:56;;;;;;;0.20;0.20;;;21.80;99.90;;;;;;7396125;19;20131;-80
2023/09/19 11:25:38;;;;;;;0.10;0.10;;;22.00;99.90;;;;;;7393870;19;20135;-82
2023/09/19 11:28:17;;;;;;;0.10;0.10;;;22.00;99.90;;;;;;7393112;19;20135;-82
2023/09/19 11:30:55;;;;;;;0.10;0.10;;;22.10;99.90;;;;;;7393333;19;20541;-80
2023/09/19 11:33:33;;;;;;;0.20;0.20;;;22.20;99.90;;;;;;7395789;19;20146;-81
2023/09/19 11:36:12;;;;;;;0.25;0.25;;;22.00;99.90;;;;;;7397926;19;20265;-80
2023/09/19 11:38:49;;;;;;;0.20;0.20;;;22.20;99.90;;;;;;7396648;19;20579;-81
2023/09/19 11:41:21;;;;;;;0.10;0.10;;;22.40;99.90;;;;;;7400111;19;20520;-80
2023/09/19 11:43:51;;;;;;;0.10;0.10;;;22.50;99.90;;;;;;7393765;19;20146;-81
2023/09/19 11:46:23;;;;;;;0.10;0.10;;;22.40;99.90;;;;;;7394884;19;20561;-81
2023/09/19 11:48:50;;;;;;;0.00;0.00;;;22.30;99.90;;;;;;7391856;19;20143;-82
2023/09/19 11:51:27;;;;;;;0.28;0.25;;;22.50;99.90;;;;;;7398879;19;20161;-80
2023/09/19 11:53:55;;;;;;;0.10;0.10;;;22.40;99.90;;;;;;7399852;19;20139;-81
2023/09/19 11:56:24;;;;;;;0.10;0.10;;;22.60;99.90;;;;;;7400548;19;20206;-81
2023/09/19 11:58:53;;;;;;;0.08;0.08;;;22.60;99.90;;;;;;7407411;19;20213;-83
2023/09/19 12:01:25;;;;;;;0.10;0.10;;;22.90;99.90;;;;;;7407218;19;20607;-80
2023/09/19 12:03:57;;;;;;;0.10;0.10;;;22.80;99.90;;;;;;7403723;19;20146;-80
2023/09/19 12:06:24;;;;;;;0.57;0.57;;;22.80;99.90;;;;;;7405111;19;20147;-82
2023/09/19 12:08:53;;;;;;;0.10;0.10;;;22.90;99.90;;;;;;7400100;19;20131;-82
2023/09/19 12:11:21;;;;;;;0.10;0.10;;;22.80;99.90;;;;;;7398220;19;20139;-81
2023/09/19 12:13:48;;;;;;;0.05;0.05;;;22.70;99.90;;;;;;7400366;19;20134;-81
2023/09/19 12:16:21;;;;;;;0.03;0.03;;;22.90;99.90;;;;;;7396654;19;20142;-81
2023/09/19 12:18:50;;;;;;;0.10;0.10;;;22.80;99.90;;;;;;7395546;19;20233;-81
2023/09/19 12:21:32;;;;;;;0.10;0.10;;;22.90;99.90;;;;;;7398411;19;20135;-82
2023/09/19 12:24:19;;;;;;;0.17;0.17;;;23.00;99.90;;;;;;7397711;19;20173;-82
2023/09/19 12:26:52;;;;;;;0.10;0.10;;;23.10;99.90;;;;;;7398754;19;20138;-81
2023/09/19 12:29:21;;;;;;;0.20;0.20;;;23.10;99.90;;;;;;7398502;19;20135;-82
2023/09/19 12:31:57;;;;;;;0.10;0.10;;;23.10;99.90;;;;;;7397503;19;20485;-80
2023/09/19 12:34:29;;;;;;;0.38;0.38;;;23.20;99.90;;;;;;7394721;19;20912;-81
2023/09/19 12:37:12;;;;;;;0.10;0.10;;;23.10;99.90;;;;;;7396161;19;20154;-82
2023/09/19 12:39:43;;;;;;;0.10;0.10;;;23.00;99.90;;;;;;7395051;19;20134;-82
2023/09/19 12:42:13;;;;;;;0.57;0.20;;;22.80;99.90;;;;;;7394937;19;20139;-81
2023/09/19 12:44:44;;;;;;;0.10;0.10;;;22.90;99.90;;;;;;7394047;19;20553;-82
2023/09/19 12:47:19;;;;;;;0.10;0.10;;;23.00;99.90;;;;;;7395183;19;20269;-82
2023/09/19 12:50:18;;;;;;;0.20;0.20;;;23.20;99.90;;;;;;7394989;19;20586;-83
2023/09/19 12:52:50;;;;;;;0.00;0.00;;;23.10;99.90;;;;;;7392656;19;20158;-81
2023/09/19 12:55:26;;;;;;;0.20;0.20;;;23.20;99.90;;;;;;7393011;19;20146;-82
2023/09/19 12:58:09;;;;;;;0.20;0.20;;;23.10;99.90;;;;;;7395341;19;20149;-82
2023/09/19 13:00:35;;;;;;;0.20;0.20;;;23.20;99.90;;;;;;7393804;19;20134;-82
2023/09/19 13:03:20;;;;;;;0.13;0.13;;;23.20;99.90;;;;;;7391301;19;20182;-83
2023/09/19 13:05:53;;;;;;;0.15;0.15;;;23.30;99.90;;;;;;7395077;19;20146;-84
2023/09/19 13:08:32;;;;;;;0.10;0.10;;;23.20;99.90;;;;;;7395710;19;20138;-84
2023/09/19 13:11:13;;;;;;;0.15;0.15;;;23.10;99.90;;;;;;7394185;19;20560;-83